sensor_id;sensor_type;location;lat;lon;timestamp;pressure;altitude;pressure_sealevel;temperature;humidity
50854;BME280;44154;45.506;-122.806;2023-03-20T00:00:24;99588.97;;;25.74;31.72
50854;BME280;44154;45.506;-122.806;2023-03-20T00:02:51;99582.72;;;25.69;31.70
50854;BME280;44154;45.506;-122.806;2023-03-20T00:05:20;99584.75;;;25.58;32.37
50854;BME280;44154;45.506;-122.806;2023-03-20T00:07:47;99573.56;;;25.54;32.46
50854;BME280;44154;45.506;-122.806;2023-03-20T00:10:18;99579.09;;;25.49;32.35
50854;BME280;44154;45.506;-122.806;2023-03-20T00:12:47;99569.81;;;25.45;32.46
50854;BME280;44154;45.506;-122.806;2023-03-20T00:17:45;99570.41;;;25.42;32.43
50854;BME280;44154;45.506;-122.806;2023-03-20T00:20:15;99558.63;;;25.41;32.25
50854;BME280;44154;45.506;-122.806;2023-03-20T00:22:42;99558.09;;;25.39;32.26
50854;BME280;44154;45.506;-122.806;2023-03-20T00:25:15;99554.66;;;25.23;32.85
50854;BME280;44154;45.506;-122.806;2023-03-20T00:27:42;99543.72;;;25.23;32.74
50854;BME280;44154;45.506;-122.806;2023-03-20T00:30:17;99553.28;;;25.31;32.77
50854;BME280;44154;45.506;-122.806;2023-03-20T00:32:46;99549.41;;;25.32;32.81
50854;BME280;44154;45.506;-122.806;2023-03-20T00:35:26;99530.66;;;25.44;32.80
50854;BME280;44154;45.506;-122.806;2023-03-20T00:37:53;99523.88;;;25.61;32.36
50854;BME280;44154;45.506;-122.806;2023-03-20T00:40:20;99542.06;;;25.76;32.41
50854;BME280;44154;45.506;-122.806;2023-03-20T00:42:50;99539.34;;;25.76;32.19
50854;BME280;44154;45.506;-122.806;2023-03-20T00:45:22;99530.88;;;25.72;32.43
50854;BME280;44154;45.506;-122.806;2023-03-20T00:47:49;99513.81;;;25.56;32.44
50854;BME280;44154;45.506;-122.806;2023-03-20T00:50:21;99525.78;;;25.66;32.66
50854;BME280;44154;45.506;-122.806;2023-03-20T00:52:49;99520.84;;;25.62;32.84
50854;BME280;44154;45.506;-122.806;2023-03-20T00:55:17;99515.97;;;25.59;32.78
50854;BME280;44154;45.506;-122.806;2023-03-20T00:58:08;99517.91;;;25.59;32.97
50854;BME280;44154;45.506;-122.806;2023-03-20T01:00:40;99520.69;;;25.54;32.78
50854;BME280;44154;45.506;-122.806;2023-03-20T01:03:26;99516.09;;;25.49;33.13
50854;BME280;44154;45.506;-122.806;2023-03-20T01:05:54;99510.38;;;25.45;33.14
50854;BME280;44154;45.506;-122.806;2023-03-20T01:08:25;99502.50;;;25.39;32.89
50854;BME280;44154;45.506;-122.806;2023-03-20T01:10:55;99513.69;;;25.42;33.30
50854;BME280;44154;45.506;-122.806;2023-03-20T01:13:25;99508.50;;;25.41;33.05
50854;BME280;44154;45.506;-122.806;2023-03-20T01:15:53;99511.03;;;25.37;33.18
50854;BME280;44154;45.506;-122.806;2023-03-20T01:18:21;99508.03;;;25.34;33.39
50854;BME280;44154;45.506;-122.806;2023-03-20T01:20:49;99509.09;;;25.38;33.16
50854;BME280;44154;45.506;-122.806;2023-03-20T01:23:18;99505.59;;;25.32;33.26
50854;BME280;44154;45.506;-122.806;2023-03-20T01:25:44;99487.78;;;25.35;33.23
50854;BME280;44154;45.506;-122.806;2023-03-20T01:28:17;99506.81;;;25.69;33.31
50854;BME280;44154;45.506;-122.806;2023-03-20T01:30:46;99503.72;;;25.76;33.26
50854;BME280;44154;45.506;-122.806;2023-03-20T01:33:18;99505.31;;;25.77;32.95
50854;BME280;44154;45.506;-122.806;2023-03-20T01:35:45;99507.31;;;25.71;33.13
50854;BME280;44154;45.506;-122.806;2023-03-20T01:38:14;99506.59;;;25.66;33.09
50854;BME280;44154;45.506;-122.806;2023-03-20T01:41:07;99501.81;;;25.52;33.37
50854;BME280;44154;45.506;-122.806;2023-03-20T01:43:37;99445.84;;;25.10;33.58
50854;BME280;44154;45.506;-122.806;2023-03-20T01:46:24;99501.41;;;25.40;33.56
50854;BME280;44154;45.506;-122.806;2023-03-20T01:51:18;99497.03;;;25.39;33.51
50854;BME280;44154;45.506;-122.806;2023-03-20T01:54:09;99499.78;;;25.39;33.58
50854;BME280;44154;45.506;-122.806;2023-03-20T01:56:38;99500.38;;;25.36;33.59
50854;BME280;44154;45.506;-122.806;2023-03-20T01:59:20;99492.00;;;25.22;33.63
50854;BME280;44154;45.506;-122.806;2023-03-20T02:01:48;99497.63;;;25.31;33.62
50854;BME280;44154;45.506;-122.806;2023-03-20T02:04:17;99494.97;;;25.25;33.78
50854;BME280;44154;45.506;-122.806;2023-03-20T02:06:46;99491.78;;;25.18;33.61
50854;BME280;44154;45.506;-122.806;2023-03-20T02:09:12;99486.34;;;25.13;33.61
50854;BME280;44154;45.506;-122.806;2023-03-20T02:11:39;99471.13;;;25.02;33.93
50854;BME280;44154;45.506;-122.806;2023-03-20T02:14:07;99481.00;;;25.27;33.76
50854;BME280;44154;45.506;-122.806;2023-03-20T02:16:33;99469.81;;;25.48;33.31
50854;BME280;44154;45.506;-122.806;2023-03-20T02:18:59;99483.97;;;25.55;33.84
50854;BME280;44154;45.506;-122.806;2023-03-20T02:35:07;99469.00;;;25.47;33.83
50854;BME280;44154;45.506;-122.806;2023-03-20T02:40:29;99475.88;;;25.44;33.79
50854;BME280;44154;45.506;-122.806;2023-03-20T02:46:08;99474.25;;;25.43;33.59
50854;BME280;44154;45.506;-122.806;2023-03-20T02:54:17;99473.00;;;25.31;34.32
50854;BME280;44154;45.506;-122.806;2023-03-20T03:02:07;99480.09;;;25.37;33.88
50854;BME280;44154;45.506;-122.806;2023-03-20T03:04:40;99466.16;;;25.28;33.63
50854;BME280;44154;45.506;-122.806;2023-03-20T03:07:10;99481.00;;;25.51;33.74
50854;BME280;44154;45.506;-122.806;2023-03-20T03:09:42;99474.34;;;25.57;33.68
50854;BME280;44154;45.506;-122.806;2023-03-20T03:12:15;99478.63;;;25.44;33.03
50854;BME280;44154;45.506;-122.806;2023-03-20T03:14:46;99479.03;;;25.33;33.85
50854;BME280;44154;45.506;-122.806;2023-03-20T03:17:14;99486.97;;;25.34;33.80
50854;BME280;44154;45.506;-122.806;2023-03-20T03:19:45;99469.88;;;25.18;33.57
50854;BME280;44154;45.506;-122.806;2023-03-20T03:22:14;99474.22;;;25.19;33.54
50854;BME280;44154;45.506;-122.806;2023-03-20T03:24:46;99476.16;;;25.19;33.81
50854;BME280;44154;45.506;-122.806;2023-03-20T03:27:35;99480.06;;;25.13;33.78
50854;BME280;44154;45.506;-122.806;2023-03-20T03:30:07;99470.44;;;25.15;33.96
50854;BME280;44154;45.506;-122.806;2023-03-20T03:32:43;99479.22;;;25.12;33.77
50854;BME280;44154;45.506;-122.806;2023-03-20T03:35:15;99482.53;;;25.09;33.86
50854;BME280;44154;45.506;-122.806;2023-03-20T03:37:57;99474.91;;;25.06;33.92
50854;BME280;44154;45.506;-122.806;2023-03-20T03:40:40;99473.81;;;25.07;33.96
50854;BME280;44154;45.506;-122.806;2023-03-20T03:43:33;99475.50;;;25.03;34.32
50854;BME280;44154;45.506;-122.806;2023-03-20T03:46:13;99458.06;;;24.93;33.94
50854;BME280;44154;45.506;-122.806;2023-03-20T03:48:46;99468.97;;;24.99;34.01
50854;BME280;44154;45.506;-122.806;2023-03-20T03:51:16;99480.44;;;25.01;33.91
50854;BME280;44154;45.506;-122.806;2023-03-20T03:53:59;99468.50;;;24.91;34.02
50854;BME280;44154;45.506;-122.806;2023-03-20T03:56:28;99472.31;;;24.90;33.87
50854;BME280;44154;45.506;-122.806;2023-03-20T03:59:00;99470.16;;;24.87;34.10
50854;BME280;44154;45.506;-122.806;2023-03-20T04:01:30;99469.66;;;24.85;34.00
50854;BME280;44154;45.506;-122.806;2023-03-20T04:04:02;99447.63;;;24.71;33.87
50854;BME280;44154;45.506;-122.806;2023-03-20T04:06:31;99456.84;;;24.81;33.89
50854;BME280;44154;45.506;-122.806;2023-03-20T04:08:57;99450.91;;;24.73;33.86
50854;BME280;44154;45.506;-122.806;2023-03-20T04:11:24;99451.13;;;24.77;33.83
50854;BME280;44154;45.506;-122.806;2023-03-20T04:13:53;99464.81;;;24.77;34.29
50854;BME280;44154;45.506;-122.806;2023-03-20T04:16:21;99457.97;;;24.74;34.10
50854;BME280;44154;45.506;-122.806;2023-03-20T04:18:48;99463.16;;;24.76;34.35
50854;BME280;44154;45.506;-122.806;2023-03-20T04:21:14;99456.38;;;24.73;34.10
50854;BME280;44154;45.506;-122.806;2023-03-20T04:23:41;99456.91;;;24.70;34.17
50854;BME280;44154;45.506;-122.806;2023-03-20T04:26:07;99455.13;;;24.61;34.29
50854;BME280;44154;45.506;-122.806;2023-03-20T04:28:34;99447.94;;;24.65;34.33
50854;BME280;44154;45.506;-122.806;2023-03-20T04:31:01;99444.69;;;24.63;34.24
50854;BME280;44154;45.506;-122.806;2023-03-20T04:33:28;99444.69;;;24.63;34.18
50854;BME280;44154;45.506;-122.806;2023-03-20T04:35:55;99438.41;;;24.62;34.19
50854;BME280;44154;45.506;-122.806;2023-03-20T04:38:21;99433.25;;;24.55;34.41
50854;BME280;44154;45.506;-122.806;2023-03-20T04:40:48;99440.88;;;24.58;34.08
50854;BME280;44154;45.506;-122.806;2023-03-20T04:43:15;99437.06;;;24.54;34.10
50854;BME280;44154;45.506;-122.806;2023-03-20T04:45:41;99420.75;;;24.44;34.16
50854;BME280;44154;45.506;-122.806;2023-03-20T04:48:08;99435.47;;;24.53;34.08
50854;BME280;44154;45.506;-122.806;2023-03-20T04:50:34;99434.91;;;24.51;34.16
50854;BME280;44154;45.506;-122.806;2023-03-20T04:53:00;99433.56;;;24.49;34.54
50854;BME280;44154;45.506;-122.806;2023-03-20T04:55:26;99430.06;;;24.43;34.83
50854;BME280;44154;45.506;-122.806;2023-03-20T04:57:52;99432.94;;;24.57;34.62
50854;BME280;44154;45.506;-122.806;2023-03-20T05:00:19;99437.25;;;24.68;34.78
50854;BME280;44154;45.506;-122.806;2023-03-20T05:02:45;99428.91;;;24.84;34.73
50854;BME280;44154;45.506;-122.806;2023-03-20T05:05:11;99434.19;;;24.99;34.81
50854;BME280;44154;45.506;-122.806;2023-03-20T05:07:37;99444.63;;;25.21;34.15
50854;BME280;44154;45.506;-122.806;2023-03-20T05:10:04;99449.75;;;25.28;34.03
50854;BME280;44154;45.506;-122.806;2023-03-20T05:12:31;99455.00;;;25.24;33.89
50854;BME280;44154;45.506;-122.806;2023-03-20T05:14:57;99451.50;;;25.19;33.88
50854;BME280;44154;45.506;-122.806;2023-03-20T05:17:23;99431.13;;;25.06;34.05
50854;BME280;44154;45.506;-122.806;2023-03-20T05:19:50;99449.19;;;25.07;33.96
50854;BME280;44154;45.506;-122.806;2023-03-20T05:22:16;99437.69;;;25.05;34.33
50854;BME280;44154;45.506;-122.806;2023-03-20T05:24:43;99418.66;;;24.94;34.04
50854;BME280;44154;45.506;-122.806;2023-03-20T05:27:09;99440.78;;;24.98;34.25
50854;BME280;44154;45.506;-122.806;2023-03-20T05:29:36;99438.84;;;24.99;34.16
50854;BME280;44154;45.506;-122.806;2023-03-20T05:32:02;99422.84;;;24.87;34.63
50854;BME280;44154;45.506;-122.806;2023-03-20T05:34:29;99429.47;;;24.81;34.55
50854;BME280;44154;45.506;-122.806;2023-03-20T05:36:55;99433.22;;;24.90;34.63
50854;BME280;44154;45.506;-122.806;2023-03-20T05:39:21;99424.75;;;25.10;34.47
50854;BME280;44154;45.506;-122.806;2023-03-20T05:41:47;99439.53;;;25.39;33.83
50854;BME280;44154;45.506;-122.806;2023-03-20T05:44:14;99431.16;;;25.49;33.54
50854;BME280;44154;45.506;-122.806;2023-03-20T05:46:40;99433.84;;;25.54;33.91
50854;BME280;44154;45.506;-122.806;2023-03-20T05:49:06;99435.47;;;25.55;34.04
50854;BME280;44154;45.506;-122.806;2023-03-20T05:51:33;99431.31;;;25.58;34.02
50854;BME280;44154;45.506;-122.806;2023-03-20T05:53:59;99432.50;;;25.52;33.90
50854;BME280;44154;45.506;-122.806;2023-03-20T05:56:26;99443.22;;;25.48;33.81
50854;BME280;44154;45.506;-122.806;2023-03-20T05:58:52;99446.63;;;25.40;33.93
50854;BME280;44154;45.506;-122.806;2023-03-20T06:01:18;99446.19;;;25.33;34.17
50854;BME280;44154;45.506;-122.806;2023-03-20T06:03:49;99448.91;;;25.33;34.23
50854;BME280;44154;45.506;-122.806;2023-03-20T06:06:16;99460.91;;;25.37;34.30
50854;BME280;44154;45.506;-122.806;2023-03-20T06:08:42;99455.50;;;25.32;34.29
50854;BME280;44154;45.506;-122.806;2023-03-20T06:11:10;99467.50;;;25.36;34.33
50854;BME280;44154;45.506;-122.806;2023-03-20T06:13:36;99458.53;;;25.25;36.61
50854;BME280;44154;45.506;-122.806;2023-03-20T06:16:03;99449.22;;;25.31;36.89
50854;BME280;44154;45.506;-122.806;2023-03-20T06:18:29;99439.94;;;25.51;36.15
50854;BME280;44154;45.506;-122.806;2023-03-20T06:20:56;99447.22;;;25.80;35.97
50854;BME280;44154;45.506;-122.806;2023-03-20T06:23:24;99448.97;;;25.90;34.57
50854;BME280;44154;45.506;-122.806;2023-03-20T06:25:50;99453.84;;;25.93;33.95
50854;BME280;44154;45.506;-122.806;2023-03-20T06:28:16;99427.56;;;25.73;33.95
50854;BME280;44154;45.506;-122.806;2023-03-20T06:30:43;99446.16;;;25.76;33.73
50854;BME280;44154;45.506;-122.806;2023-03-20T06:33:09;99447.84;;;25.72;34.08
50854;BME280;44154;45.506;-122.806;2023-03-20T06:35:36;99438.16;;;25.60;34.11
50854;BME280;44154;45.506;-122.806;2023-03-20T06:38:02;99447.63;;;25.68;33.80
50854;BME280;44154;45.506;-122.806;2023-03-20T06:40:28;99452.28;;;25.68;33.85
50854;BME280;44154;45.506;-122.806;2023-03-20T06:42:54;99456.72;;;25.63;34.00
50854;BME280;44154;45.506;-122.806;2023-03-20T06:45:21;99455.69;;;25.59;33.90
50854;BME280;44154;45.506;-122.806;2023-03-20T06:47:47;99448.69;;;25.48;34.11
50854;BME280;44154;45.506;-122.806;2023-03-20T06:50:14;99465.13;;;25.48;34.23
50854;BME280;44154;45.506;-122.806;2023-03-20T06:52:41;99455.38;;;25.42;34.05
50854;BME280;44154;45.506;-122.806;2023-03-20T06:55:07;99454.31;;;25.38;33.98
50854;BME280;44154;45.506;-122.806;2023-03-20T06:57:34;99454.13;;;25.29;34.34
50854;BME280;44154;45.506;-122.806;2023-03-20T07:00:00;99457.69;;;25.30;34.36
50854;BME280;44154;45.506;-122.806;2023-03-20T07:02:26;99450.94;;;25.46;34.86
50854;BME280;44154;45.506;-122.806;2023-03-20T07:04:52;99444.72;;;25.59;35.03
50854;BME280;44154;45.506;-122.806;2023-03-20T07:07:18;99456.34;;;25.51;36.19
50854;BME280;44154;45.506;-122.806;2023-03-20T07:09:45;99454.31;;;25.38;35.41
50854;BME280;44154;45.506;-122.806;2023-03-20T07:12:13;99457.75;;;25.24;34.85
50854;BME280;44154;45.506;-122.806;2023-03-20T07:14:40;99444.22;;;25.09;34.83
50854;BME280;44154;45.506;-122.806;2023-03-20T07:17:08;99454.41;;;25.03;34.91
50854;BME280;44154;45.506;-122.806;2023-03-20T07:19:38;99452.03;;;24.97;34.72
50854;BME280;44154;45.506;-122.806;2023-03-20T07:22:07;99430.28;;;24.81;34.75
50854;BME280;44154;45.506;-122.806;2023-03-20T07:24:35;99438.16;;;24.88;34.94
50854;BME280;44154;45.506;-122.806;2023-03-20T07:27:01;99449.91;;;24.88;35.01
50854;BME280;44154;45.506;-122.806;2023-03-20T07:29:27;99453.25;;;24.85;35.30
50854;BME280;44154;45.506;-122.806;2023-03-20T07:31:53;99454.13;;;24.81;35.46
50854;BME280;44154;45.506;-122.806;2023-03-20T07:34:19;99432.59;;;24.69;35.95
50854;BME280;44154;45.506;-122.806;2023-03-20T07:36:46;99453.91;;;24.72;35.72
50854;BME280;44154;45.506;-122.806;2023-03-20T07:39:12;99452.88;;;24.68;35.28
50854;BME280;44154;45.506;-122.806;2023-03-20T07:41:39;99449.28;;;24.67;35.12
50854;BME280;44154;45.506;-122.806;2023-03-20T07:44:05;99446.34;;;24.64;35.07
50854;BME280;44154;45.506;-122.806;2023-03-20T07:46:33;99431.13;;;24.47;35.04
50854;BME280;44154;45.506;-122.806;2023-03-20T07:48:59;99458.38;;;24.57;34.95
50854;BME280;44154;45.506;-122.806;2023-03-20T07:51:25;99451.03;;;24.53;35.21
50854;BME280;44154;45.506;-122.806;2023-03-20T07:53:51;99452.38;;;24.55;35.15
50854;BME280;44154;45.506;-122.806;2023-03-20T07:56:18;99453.41;;;24.65;35.21
50854;BME280;44154;45.506;-122.806;2023-03-20T07:58:44;99454.47;;;24.69;35.00
50854;BME280;44154;45.506;-122.806;2023-03-20T08:01:10;99436.56;;;24.52;35.82
50854;BME280;44154;45.506;-122.806;2023-03-20T08:03:36;99465.50;;;24.58;36.80
50854;BME280;44154;45.506;-122.806;2023-03-20T08:06:03;99448.06;;;24.49;36.96
50854;BME280;44154;45.506;-122.806;2023-03-20T08:08:32;99451.91;;;24.48;36.75
50854;BME280;44154;45.506;-122.806;2023-03-20T08:10:58;99453.53;;;24.49;35.55
50854;BME280;44154;45.506;-122.806;2023-03-20T08:13:24;99460.09;;;24.48;35.40
50854;BME280;44154;45.506;-122.806;2023-03-20T08:15:51;99371.97;;;23.93;35.25
50854;BME280;44154;45.506;-122.806;2023-03-20T08:18:17;99443.59;;;24.58;35.30
50854;BME280;44154;45.506;-122.806;2023-03-20T08:20:44;99466.44;;;24.78;35.16
50854;BME280;44154;45.506;-122.806;2023-03-20T08:23:11;99456.16;;;24.94;34.41
50854;BME280;44154;45.506;-122.806;2023-03-20T08:25:37;99466.06;;;25.14;34.07
50854;BME280;44154;45.506;-122.806;2023-03-20T08:28:03;99466.13;;;25.09;33.89
50854;BME280;44154;45.506;-122.806;2023-03-20T08:30:29;99459.66;;;25.00;33.86
50854;BME280;44154;45.506;-122.806;2023-03-20T08:32:56;99469.00;;;24.93;34.17
50854;BME280;44154;45.506;-122.806;2023-03-20T08:35:24;99470.75;;;24.84;34.22
50854;BME280;44154;45.506;-122.806;2023-03-20T08:37:50;99459.94;;;24.69;34.45
50854;BME280;44154;45.506;-122.806;2023-03-20T08:40:16;99457.84;;;24.61;34.25
50854;BME280;44154;45.506;-122.806;2023-03-20T08:42:42;99475.88;;;24.62;34.40
50854;BME280;44154;45.506;-122.806;2023-03-20T08:45:09;99477.00;;;24.55;34.31
50854;BME280;44154;45.506;-122.806;2023-03-20T08:47:36;99473.50;;;24.50;34.40
50854;BME280;44154;45.506;-122.806;2023-03-20T08:50:02;99475.72;;;24.48;34.46
50854;BME280;44154;45.506;-122.806;2023-03-20T08:52:29;99322.53;;;23.49;34.29
50854;BME280;44154;45.506;-122.806;2023-03-20T08:54:55;99461.34;;;24.32;34.47
50854;BME280;44154;45.506;-122.806;2023-03-20T08:57:21;99474.97;;;24.37;34.46
50854;BME280;44154;45.506;-122.806;2023-03-20T08:59:47;99459.72;;;24.25;34.75
50854;BME280;44154;45.506;-122.806;2023-03-20T09:02:13;99472.28;;;24.32;34.95
50854;BME280;44154;45.506;-122.806;2023-03-20T09:04:39;99464.38;;;24.30;34.87
50854;BME280;44154;45.506;-122.806;2023-03-20T09:07:06;99470.97;;;24.58;36.26
50854;BME280;44154;45.506;-122.806;2023-03-20T09:09:32;99452.75;;;24.78;36.26
50854;BME280;44154;45.506;-122.806;2023-03-20T09:11:59;99457.91;;;25.09;38.00
50854;BME280;44154;45.506;-122.806;2023-03-20T09:14:26;99468.56;;;25.40;35.29
50854;BME280;44154;45.506;-122.806;2023-03-20T09:16:53;99471.22;;;25.45;34.47
50854;BME280;44154;45.506;-122.806;2023-03-20T09:19:19;99462.84;;;25.55;34.33
50854;BME280;44154;45.506;-122.806;2023-03-20T09:21:45;99445.81;;;25.39;34.25
50854;BME280;44154;45.506;-122.806;2023-03-20T09:24:12;99446.69;;;25.35;34.59
50854;BME280;44154;45.506;-122.806;2023-03-20T09:26:38;99468.31;;;25.36;35.03
50854;BME280;44154;45.506;-122.806;2023-03-20T09:29:05;99465.91;;;25.30;35.36
50854;BME280;44154;45.506;-122.806;2023-03-20T09:31:31;99457.78;;;25.19;35.40
50854;BME280;44154;45.506;-122.806;2023-03-20T09:33:58;99467.72;;;25.15;35.78
50854;BME280;44154;45.506;-122.806;2023-03-20T09:36:24;99477.59;;;25.11;35.80
50854;BME280;44154;45.506;-122.806;2023-03-20T09:38:50;99475.47;;;25.08;36.09
50854;BME280;44154;45.506;-122.806;2023-03-20T09:41:20;99481.75;;;25.08;36.19
50854;BME280;44154;45.506;-122.806;2023-03-20T09:44:13;99472.22;;;25.01;36.20
50854;BME280;44154;45.506;-122.806;2023-03-20T09:49:44;99471.28;;;24.86;35.74
50854;BME280;44154;45.506;-122.806;2023-03-20T09:52:26;99472.97;;;24.82;36.49
50854;BME280;44154;45.506;-122.806;2023-03-20T09:55:03;99474.69;;;24.73;37.18
50854;BME280;44154;45.506;-122.806;2023-03-20T10:00:06;99468.78;;;24.90;36.85
50854;BME280;44154;45.506;-122.806;2023-03-20T10:03:08;99470.31;;;25.01;36.44
50854;BME280;44154;45.506;-122.806;2023-03-20T10:05:38;99469.97;;;25.08;36.24
50854;BME280;44154;45.506;-122.806;2023-03-20T10:08:12;99465.03;;;25.10;35.97
50854;BME280;44154;45.506;-122.806;2023-03-20T10:13:33;99461.78;;;25.08;36.05
50854;BME280;44154;45.506;-122.806;2023-03-20T10:16:25;99462.63;;;25.03;36.25
50854;BME280;44154;45.506;-122.806;2023-03-20T10:21:50;99454.59;;;24.88;36.26
50854;BME280;44154;45.506;-122.806;2023-03-20T10:24:40;99459.81;;;24.84;35.89
50854;BME280;44154;45.506;-122.806;2023-03-20T10:27:24;99468.03;;;24.84;36.05
50854;BME280;44154;45.506;-122.806;2023-03-20T10:35:56;99465.47;;;24.64;36.83
50854;BME280;44154;45.506;-122.806;2023-03-20T10:41:10;99478.94;;;24.89;37.03
50854;BME280;44154;45.506;-122.806;2023-03-20T10:43:39;99435.41;;;24.58;36.48
50854;BME280;44154;45.506;-122.806;2023-03-20T10:46:34;99479.44;;;24.91;36.40
50854;BME280;44154;45.506;-122.806;2023-03-20T10:49:09;99490.69;;;24.90;35.98
50854;BME280;44154;45.506;-122.806;2023-03-20T10:52:02;99490.44;;;24.86;36.23
50854;BME280;44154;45.506;-122.806;2023-03-20T10:54:45;99496.47;;;24.83;36.08
50854;BME280;44154;45.506;-122.806;2023-03-20T10:57:19;99495.72;;;24.77;36.23
50854;BME280;44154;45.506;-122.806;2023-03-20T10:59:52;99483.50;;;24.65;36.32
50854;BME280;44154;45.506;-122.806;2023-03-20T11:02:21;99496.63;;;24.68;36.39
50854;BME280;44154;45.506;-122.806;2023-03-20T11:04:49;99499.69;;;24.56;36.63
50854;BME280;44154;45.506;-122.806;2023-03-20T11:09:44;99498.31;;;24.64;36.69
50854;BME280;44154;45.506;-122.806;2023-03-20T11:12:19;99494.63;;;24.79;36.36
50854;BME280;44154;45.506;-122.806;2023-03-20T11:14:45;99491.84;;;24.84;36.60
50854;BME280;44154;45.506;-122.806;2023-03-20T11:17:11;99499.69;;;24.90;36.19
50854;BME280;44154;45.506;-122.806;2023-03-20T11:19:40;99492.41;;;24.81;35.98
50854;BME280;44154;45.506;-122.806;2023-03-20T11:22:25;99498.63;;;24.86;36.12
50854;BME280;44154;45.506;-122.806;2023-03-20T11:24:56;99498.94;;;24.85;35.92
50854;BME280;44154;45.506;-122.806;2023-03-20T11:27:31;99502.25;;;24.82;36.11
50854;BME280;44154;45.506;-122.806;2023-03-20T11:30:01;99518.44;;;24.78;36.05
50854;BME280;44154;45.506;-122.806;2023-03-20T11:32:30;99519.31;;;24.73;36.13
50854;BME280;44154;45.506;-122.806;2023-03-20T11:35:19;99514.66;;;24.69;36.25
50854;BME280;44154;45.506;-122.806;2023-03-20T11:37:49;99519.84;;;24.70;36.13
50854;BME280;44154;45.506;-122.806;2023-03-20T11:40:29;99518.53;;;24.68;36.36
50854;BME280;44154;45.506;-122.806;2023-03-20T11:43:03;99518.28;;;24.64;36.72
50854;BME280;44154;45.506;-122.806;2023-03-20T11:45:37;99510.09;;;24.59;36.54
50854;BME280;44154;45.506;-122.806;2023-03-20T11:48:05;99522.78;;;24.79;36.09
50854;BME280;44154;45.506;-122.806;2023-03-20T11:50:34;99522.13;;;24.92;36.15
50854;BME280;44154;45.506;-122.806;2023-03-20T11:53:24;99531.97;;;24.93;36.05
50854;BME280;44154;45.506;-122.806;2023-03-20T11:56:24;99539.13;;;24.89;35.99
50854;BME280;44154;45.506;-122.806;2023-03-20T12:01:51;99537.59;;;24.78;36.12
50854;BME280;44154;45.506;-122.806;2023-03-20T12:04:33;99547.19;;;24.75;35.92
50854;BME280;44154;45.506;-122.806;2023-03-20T12:07:23;99548.34;;;24.69;36.04
50854;BME280;44154;45.506;-122.806;2023-03-20T12:10:13;99554.59;;;24.70;36.02
50854;BME280;44154;45.506;-122.806;2023-03-20T12:15:26;99544.28;;;24.56;35.94
50854;BME280;44154;45.506;-122.806;2023-03-20T12:23:21;99562.22;;;24.78;35.90
50854;BME280;44154;45.506;-122.806;2023-03-20T12:26:10;99566.72;;;24.93;35.81
50854;BME280;44154;45.506;-122.806;2023-03-20T12:36:44;99569.59;;;24.77;35.69
50854;BME280;44154;45.506;-122.806;2023-03-20T12:39:16;99578.13;;;24.71;35.98
50854;BME280;44154;45.506;-122.806;2023-03-20T12:44:56;99595.97;;;24.63;36.03
50854;BME280;44154;45.506;-122.806;2023-03-20T12:53:08;99607.19;;;24.62;35.95
50854;BME280;44154;45.506;-122.806;2023-03-20T13:02:21;99622.81;;;24.96;35.44
50854;BME280;44154;45.506;-122.806;2023-03-20T13:07:20;99630.25;;;24.90;35.35
50854;BME280;44154;45.506;-122.806;2023-03-20T13:20:47;99636.19;;;24.63;35.84
50854;BME280;44154;45.506;-122.806;2023-03-20T13:23:32;99633.44;;;24.57;35.78
50854;BME280;44154;45.506;-122.806;2023-03-20T13:26:08;99638.41;;;24.55;35.94
50854;BME280;44154;45.506;-122.806;2023-03-20T13:28:48;99636.22;;;24.52;36.02
50854;BME280;44154;45.506;-122.806;2023-03-20T13:40:21;99652.97;;;25.25;34.85
50854;BME280;44154;45.506;-122.806;2023-03-20T13:43:18;99656.75;;;25.29;34.78
50854;BME280;44154;45.506;-122.806;2023-03-20T13:45:39;99653.53;;;25.22;34.89
50854;BME280;44154;45.506;-122.806;2023-03-20T13:48:34;99665.38;;;25.12;34.86
50854;BME280;44154;45.506;-122.806;2023-03-20T14:00:32;99688.94;;;25.13;34.86
50854;BME280;44154;45.506;-122.806;2023-03-20T14:05:45;99700.81;;;25.38;34.53
50854;BME280;44154;45.506;-122.806;2023-03-20T14:08:28;99697.34;;;25.61;34.09
50854;BME280;44154;45.506;-122.806;2023-03-20T14:11:05;99703.22;;;25.74;33.83
50854;BME280;44154;45.506;-122.806;2023-03-20T14:13:33;99696.22;;;25.62;33.53
50854;BME280;44154;45.506;-122.806;2023-03-20T14:16:07;99715.06;;;25.69;33.64
50854;BME280;44154;45.506;-122.806;2023-03-20T14:18:34;99716.75;;;25.65;33.52
50854;BME280;44154;45.506;-122.806;2023-03-20T14:21:08;99713.31;;;25.49;33.82
50854;BME280;44154;45.506;-122.806;2023-03-20T14:23:42;99732.75;;;25.53;33.64
50854;BME280;44154;45.506;-122.806;2023-03-20T14:26:29;99714.00;;;25.36;34.00
50854;BME280;44154;45.506;-122.806;2023-03-20T14:31:35;99745.22;;;25.35;33.91
50854;BME280;44154;45.506;-122.806;2023-03-20T14:34:16;99758.38;;;25.33;34.18
50854;BME280;44154;45.506;-122.806;2023-03-20T14:37:02;99749.66;;;25.20;34.22
50854;BME280;44154;45.506;-122.806;2023-03-20T14:39:47;99755.84;;;25.41;34.40
50854;BME280;44154;45.506;-122.806;2023-03-20T14:47:43;99760.16;;;25.82;33.73
50854;BME280;44154;45.506;-122.806;2023-03-20T15:04:20;99772.50;;;25.50;34.48
50854;BME280;44154;45.506;-122.806;2023-03-20T15:09:40;99777.78;;;25.41;34.47
50854;BME280;44154;45.506;-122.806;2023-03-20T15:12:10;99780.53;;;25.36;34.55
50854;BME280;44154;45.506;-122.806;2023-03-20T15:14:55;99772.66;;;25.24;34.50
50854;BME280;44154;45.506;-122.806;2023-03-20T15:17:25;99790.28;;;25.53;34.28
50854;BME280;44154;45.506;-122.806;2023-03-20T15:22:58;99792.31;;;26.06;33.94